createdAt,value
2024-02-18T00:01:07.304Z,57.39
2024-02-18T00:03:34.041Z,56.97
2024-02-18T00:06:00.773Z,57.11
2024-02-18T00:08:27.262Z,56.81
2024-02-18T00:10:53.863Z,57.39
2024-02-18T00:13:20.454Z,56.33
2024-02-18T00:15:46.996Z,56.48
2024-02-18T00:18:13.495Z,56.78
2024-02-18T00:20:39.980Z,57.34
2024-02-18T00:23:06.447Z,57.30
2024-02-18T00:25:32.888Z,57.27
2024-02-18T00:27:59.579Z,57.33
2024-02-18T00:30:26.213Z,57.19
2024-02-18T00:32:52.793Z,57.14
2024-02-18T00:35:19.378Z,57.65
2024-02-18T00:37:45.860Z,58.20
2024-02-18T00:40:12.405Z,58.44
2024-02-18T00:42:39.017Z,57.67
2024-02-18T00:45:05.516Z,57.83
2024-02-18T00:47:32.009Z,59.71
2024-02-18T00:49:58.451Z,59.22
2024-02-18T00:52:24.901Z,58.16
2024-02-18T00:54:51.392Z,57.40
2024-02-18T00:57:17.948Z,57.43
2024-02-18T00:59:44.439Z,57.63
2024-02-18T01:02:11.017Z,57.71
2024-02-18T01:04:37.621Z,57.63
2024-02-18T01:07:04.195Z,57.15
2024-02-18T01:09:30.782Z,57.60
2024-02-18T01:11:57.297Z,57.57
2024-02-18T01:14:23.804Z,57.64
2024-02-18T01:16:50.313Z,57.62
2024-02-18T01:19:17.096Z,57.79
2024-02-18T01:21:43.647Z,57.37
2024-02-18T01:24:10.365Z,57.14
2024-02-18T01:26:36.821Z,57.18
2024-02-18T01:29:03.322Z,57.65
2024-02-18T01:31:29.766Z,57.83
2024-02-18T01:33:56.328Z,57.63
2024-02-18T01:36:22.839Z,57.46
2024-02-18T01:38:49.307Z,57.02
2024-02-18T01:41:15.790Z,57.49
2024-02-18T01:43:42.237Z,57.42
2024-02-18T01:46:08.748Z,57.88
2024-02-18T01:48:35.302Z,58.76
2024-02-18T01:51:01.851Z,58.23
2024-02-18T01:53:28.344Z,57.71
2024-02-18T01:55:54.787Z,58.67
2024-02-18T01:58:21.232Z,58.77
2024-02-18T02:00:47.756Z,58.04
2024-02-18T02:03:14.319Z,58.16
2024-02-18T02:05:41.104Z,57.66
2024-02-18T02:08:07.725Z,57.41
2024-02-18T02:10:34.243Z,57.38
2024-02-18T02:13:00.889Z,57.82
2024-02-18T02:15:27.446Z,57.44
2024-02-18T02:17:53.965Z,57.43
2024-02-18T02:20:20.457Z,57.09
2024-02-18T02:22:46.883Z,57.10
2024-02-18T02:25:13.379Z,57.14
2024-02-18T02:27:40.022Z,57.14
2024-02-18T02:30:06.495Z,56.60
2024-02-18T02:32:33.037Z,57.15
2024-02-18T02:34:59.654Z,56.53
2024-02-18T02:37:26.119Z,57.02
2024-02-18T02:39:52.696Z,57.29
2024-02-18T02:42:19.305Z,57.59
2024-02-18T02:44:45.894Z,57.64
2024-02-18T02:47:12.341Z,57.92
2024-02-18T02:49:38.958Z,57.49
2024-02-18T02:52:05.565Z,57.25
2024-02-18T02:54:32.079Z,57.75
2024-02-18T02:56:58.531Z,58.32
2024-02-18T02:59:24.969Z,58.10
2024-02-18T03:01:51.477Z,57.76
2024-02-18T03:04:18.001Z,57.64
2024-02-18T03:06:44.581Z,57.93
2024-02-18T03:09:11.096Z,57.76
2024-02-18T03:11:37.651Z,58.39
2024-02-18T03:14:04.105Z,57.77
2024-02-18T03:16:30.560Z,58.43
2024-02-18T03:18:57.170Z,57.67
2024-02-18T03:21:23.733Z,58.67
2024-02-18T03:23:50.273Z,58.69
2024-02-18T03:26:16.775Z,58.97
2024-02-18T03:28:43.247Z,58.84
2024-02-18T03:31:09.754Z,58.58
2024-02-18T03:33:36.331Z,59.23
2024-02-18T03:36:02.846Z,59.18
2024-02-18T03:38:29.340Z,58.54
2024-02-18T03:40:55.951Z,58.25
2024-02-18T03:43:22.404Z,57.69
2024-02-18T03:45:48.929Z,57.79
2024-02-18T03:48:15.517Z,57.74
2024-02-18T03:50:42.000Z,58.14
2024-02-18T03:53:08.433Z,58.07
2024-02-18T03:55:34.904Z,57.88
2024-02-18T03:58:01.431Z,58.26
2024-02-18T04:00:27.952Z,58.04
2024-02-18T04:02:54.449Z,58.61
2024-02-18T04:05:21.333Z,58.87
2024-02-18T04:07:47.797Z,58.77
2024-02-18T04:10:15.585Z,58.71
2024-02-18T04:12:42.728Z,59.85
2024-02-18T04:15:09.220Z,60.18
2024-02-18T04:17:35.766Z,59.35
2024-02-18T04:20:02.340Z,59.78
2024-02-18T04:22:28.872Z,60.45
2024-02-18T04:24:55.467Z,60.31
2024-02-18T04:27:21.985Z,59.83
2024-02-18T04:29:48.443Z,59.49
2024-02-18T04:32:14.994Z,58.76
2024-02-18T04:34:41.562Z,59.09
2024-02-18T04:37:08.167Z,58.92
2024-02-18T04:39:34.662Z,58.80
2024-02-18T04:42:01.187Z,58.61
2024-02-18T04:44:27.637Z,58.78
2024-02-18T04:46:54.092Z,59.03
2024-02-18T04:49:20.756Z,59.09
2024-02-18T04:51:47.265Z,58.87
2024-02-18T04:54:13.759Z,58.88
2024-02-18T04:56:40.201Z,59.24
2024-02-18T04:59:06.630Z,59.29
2024-02-18T05:01:33.256Z,59.64
2024-02-18T05:03:59.872Z,59.59
2024-02-18T05:06:26.340Z,59.81
2024-02-18T05:08:52.872Z,58.78
2024-02-18T05:11:19.384Z,58.67
2024-02-18T05:13:45.838Z,58.19
2024-02-18T05:16:12.363Z,58.25
2024-02-18T05:18:38.979Z,58.25
2024-02-18T05:21:05.571Z,58.53
2024-02-18T05:23:32.119Z,59.09
2024-02-18T05:25:58.584Z,59.35
2024-02-18T05:28:25.069Z,59.66
2024-02-18T05:30:51.607Z,58.82
2024-02-18T05:33:18.309Z,58.95
2024-02-18T05:35:44.828Z,58.32
2024-02-18T05:38:11.458Z,58.64
2024-02-18T05:40:38.015Z,58.58
2024-02-18T05:43:04.502Z,58.58
2024-02-18T05:45:30.995Z,58.55
2024-02-18T05:47:57.621Z,57.78
2024-02-18T05:50:24.184Z,57.89
2024-02-18T05:52:50.727Z,57.66
2024-02-18T05:55:17.321Z,57.54
2024-02-18T05:57:43.858Z,57.23
2024-02-18T06:00:10.336Z,57.38
2024-02-18T06:02:36.849Z,57.67
2024-02-18T06:05:03.438Z,58.14
2024-02-18T06:07:30.156Z,58.07
2024-02-18T06:09:56.792Z,58.14
2024-02-18T06:12:23.414Z,58.38
2024-02-18T06:14:49.876Z,58.36
2024-02-18T06:17:16.381Z,57.84
2024-02-18T06:19:42.953Z,57.65
2024-02-18T06:22:09.596Z,57.70
2024-02-18T06:24:36.102Z,57.83
2024-02-18T06:27:02.627Z,58.01
2024-02-18T06:29:29.189Z,57.56
2024-02-18T06:31:55.709Z,58.29
2024-02-18T06:34:22.500Z,58.87
2024-02-18T06:36:49.039Z,58.25
2024-02-18T06:39:15.541Z,57.75
2024-02-18T06:41:42.055Z,57.96
2024-02-18T06:44:08.635Z,57.86
2024-02-18T06:46:35.095Z,57.60
2024-02-18T06:49:01.651Z,57.56
2024-02-18T06:51:28.191Z,58.39
2024-02-18T06:53:54.692Z,58.46
2024-02-18T06:56:21.217Z,58.34
2024-02-18T06:58:47.869Z,59.18
2024-02-18T07:01:14.488Z,59.90
2024-02-18T07:03:41.142Z,59.81
2024-02-18T07:06:07.666Z,59.23
2024-02-18T07:08:34.149Z,58.88
2024-02-18T07:11:00.700Z,59.02
2024-02-18T07:13:27.162Z,59.17
2024-02-18T07:15:53.627Z,59.60
2024-02-18T07:18:20.155Z,60.52
2024-02-18T07:20:46.721Z,60.45
2024-02-18T07:23:13.460Z,59.87
2024-02-18T07:25:39.924Z,58.91
2024-02-18T07:28:06.441Z,59.77
2024-02-18T07:30:32.953Z,59.97
2024-02-18T07:32:59.487Z,59.39
2024-02-18T07:35:26.025Z,58.72
2024-02-18T07:37:52.495Z,59.24
2024-02-18T07:40:19.013Z,59.55
2024-02-18T07:42:45.512Z,58.78
2024-02-18T07:45:12.044Z,59.21
2024-02-18T07:47:38.572Z,58.60
2024-02-18T07:50:05.083Z,59.07
2024-02-18T07:52:31.572Z,58.54
2024-02-18T07:54:58.096Z,58.47
2024-02-18T07:57:24.625Z,57.71
2024-02-18T07:59:51.104Z,57.95
2024-02-18T08:02:17.543Z,57.33
2024-02-18T08:04:44.142Z,57.58
2024-02-18T08:07:10.779Z,57.10
2024-02-18T08:09:37.286Z,57.37
2024-02-18T08:12:03.751Z,58.51
2024-02-18T08:14:30.249Z,58.85
2024-02-18T08:16:56.736Z,59.53
2024-02-18T08:19:23.288Z,58.96
2024-02-18T08:21:49.885Z,58.20
2024-02-18T08:24:16.399Z,57.37
2024-02-18T08:26:42.922Z,57.61
2024-02-18T08:29:09.374Z,57.65
2024-02-18T08:31:36.007Z,56.49
2024-02-18T08:34:02.574Z,56.50
2024-02-18T08:36:29.271Z,56.10
2024-02-18T08:38:55.769Z,57.54
2024-02-18T08:41:22.218Z,56.99
2024-02-18T08:43:48.736Z,58.16
2024-02-18T08:46:15.364Z,56.90
2024-02-18T08:48:42.065Z,56.34
2024-02-18T08:51:08.541Z,56.44
2024-02-18T08:53:35.301Z,55.44
2024-02-18T08:56:01.766Z,55.48
2024-02-18T08:58:28.226Z,55.27
2024-02-18T09:00:54.771Z,54.90
2024-02-18T09:03:21.345Z,54.63
2024-02-18T09:05:47.813Z,54.77
2024-02-18T09:08:14.301Z,56.15
2024-02-18T09:10:40.744Z,56.15
2024-02-18T09:13:07.337Z,56.30
2024-02-18T09:15:33.943Z,55.00
2024-02-18T09:18:00.800Z,54.94
2024-02-18T09:20:27.397Z,54.10
2024-02-18T09:22:53.966Z,54.23
2024-02-18T09:25:20.505Z,54.17
2024-02-18T09:27:47.106Z,54.63
2024-02-18T09:30:13.728Z,54.18
2024-02-18T09:32:40.319Z,54.94
2024-02-18T09:35:07.140Z,54.08
2024-02-18T09:37:33.713Z,54.23
2024-02-18T09:40:00.317Z,53.07
2024-02-18T09:42:26.813Z,53.37
2024-02-18T09:44:53.332Z,52.73
2024-02-18T09:47:19.795Z,54.95
2024-02-18T09:49:46.398Z,55.44
2024-02-18T09:52:12.956Z,55.42
2024-02-18T09:54:39.550Z,55.42
2024-02-18T09:57:06.050Z,54.96
2024-02-18T09:59:32.594Z,55.55
2024-02-18T10:01:59.386Z,55.26
2024-02-18T10:04:25.985Z,55.03
2024-02-18T10:06:52.565Z,54.85
2024-02-18T10:09:19.131Z,54.52
2024-02-18T10:11:45.575Z,54.75
2024-02-18T10:14:12.038Z,54.38
2024-02-18T10:16:38.469Z,54.10
2024-02-18T10:19:05.037Z,53.39
2024-02-18T10:21:31.589Z,53.59
2024-02-18T10:23:58.103Z,52.78
2024-02-18T10:26:24.658Z,52.08
2024-02-18T10:28:51.172Z,52.16
2024-02-18T10:31:17.845Z,50.95
2024-02-18T10:33:44.478Z,51.63
2024-02-18T10:36:11.394Z,51.76
2024-02-18T10:38:37.956Z,51.22
2024-02-18T10:41:04.465Z,50.92
2024-02-18T10:43:31.002Z,51.01
2024-02-18T10:45:57.510Z,50.95
2024-02-18T10:48:24.079Z,51.10
2024-02-18T10:50:50.621Z,52.05
2024-02-18T10:53:17.121Z,51.37
2024-02-18T10:55:43.558Z,50.60
2024-02-18T10:58:10.030Z,50.54
2024-02-18T11:00:36.554Z,49.97
2024-02-18T11:03:03.212Z,50.20
2024-02-18T11:05:29.829Z,50.23
2024-02-18T11:07:56.388Z,49.16
2024-02-18T11:10:22.925Z,49.25
2024-02-18T11:12:51.828Z,49.39
2024-02-18T11:15:18.462Z,49.37
2024-02-18T11:17:44.897Z,48.42
2024-02-18T11:20:11.357Z,48.85
2024-02-18T11:22:37.891Z,48.88
2024-02-18T11:25:04.524Z,48.36
2024-02-18T11:27:32.426Z,48.08
2024-02-18T11:29:58.867Z,47.24
2024-02-18T11:32:25.291Z,46.90
2024-02-18T11:34:51.975Z,47.45
2024-02-18T11:37:18.512Z,47.68
2024-02-18T11:39:45.011Z,46.09
2024-02-18T11:42:11.460Z,46.60
2024-02-18T11:44:37.924Z,46.29
2024-02-18T11:47:04.430Z,46.59
2024-02-18T11:49:30.952Z,47.24
2024-02-18T11:51:57.484Z,46.34
2024-02-18T11:54:24.229Z,47.25
2024-02-18T11:56:50.768Z,47.63
2024-02-18T11:59:17.262Z,47.82
2024-02-18T12:01:43.863Z,48.36
2024-02-18T12:04:10.631Z,47.41
2024-02-18T12:06:37.238Z,47.03
2024-02-18T12:09:03.691Z,46.89
2024-02-18T12:11:30.167Z,45.59
2024-02-18T12:13:56.697Z,46.61
2024-02-18T12:16:23.319Z,47.06
2024-02-18T12:18:49.854Z,47.17
2024-02-18T12:21:16.464Z,45.90
2024-02-18T12:23:42.914Z,45.91
2024-02-18T12:26:09.349Z,45.98
2024-02-18T12:28:35.828Z,45.11
2024-02-18T12:31:02.323Z,45.01
2024-02-18T12:33:28.959Z,45.32
2024-02-18T12:35:55.490Z,45.94
2024-02-18T12:38:22.020Z,45.28
2024-02-18T12:40:48.513Z,45.35
2024-02-18T12:43:40.893Z,46.03
2024-02-18T12:46:06.052Z,45.94
2024-02-18T12:48:35.520Z,45.61
2024-02-18T12:51:02.144Z,46.07
2024-02-18T12:53:28.721Z,45.65
2024-02-18T12:55:55.222Z,44.67
2024-02-18T12:58:21.662Z,44.63
2024-02-18T13:00:48.291Z,45.83
2024-02-18T13:03:14.873Z,46.33
2024-02-18T13:05:41.526Z,46.34
2024-02-18T13:08:08.041Z,47.31
2024-02-18T13:10:34.497Z,46.45
2024-02-18T13:13:01.199Z,45.95
2024-02-18T13:15:27.772Z,47.37
2024-02-18T13:17:54.293Z,46.23
2024-02-18T13:20:20.842Z,45.96
2024-02-18T13:22:47.318Z,45.40
2024-02-18T13:25:13.969Z,46.39
2024-02-18T13:27:40.641Z,45.88
2024-02-18T13:30:07.150Z,46.89
2024-02-18T13:32:33.692Z,46.44
2024-02-18T13:35:00.330Z,47.22
2024-02-18T13:37:26.864Z,47.11
2024-02-18T13:39:53.508Z,46.95
2024-02-18T13:42:22.075Z,46.77
2024-02-18T13:44:48.834Z,47.06
2024-02-18T13:47:15.378Z,46.18
2024-02-18T13:49:41.994Z,46.28
2024-02-18T13:52:08.597Z,46.57
2024-02-18T13:54:35.149Z,45.98
2024-02-18T13:57:01.653Z,44.81
2024-02-18T13:59:28.141Z,45.24
2024-02-18T14:01:54.696Z,45.07
2024-02-18T14:04:21.229Z,44.73
2024-02-18T14:06:47.713Z,45.19
2024-02-18T14:09:14.419Z,44.51
2024-02-18T14:11:40.912Z,46.01
2024-02-18T14:14:07.472Z,45.47
2024-02-18T14:16:33.983Z,44.96
2024-02-18T14:19:00.760Z,46.46
2024-02-18T14:21:27.324Z,45.76
2024-02-18T14:23:53.769Z,46.99
2024-02-18T14:26:20.256Z,47.37
2024-02-18T14:28:46.756Z,46.79
2024-02-18T14:31:13.284Z,47.38
2024-02-18T14:33:39.951Z,45.77
2024-02-18T14:36:06.636Z,46.30
2024-02-18T14:38:33.057Z,46.74
2024-02-18T14:40:59.519Z,47.22
2024-02-18T14:43:25.998Z,45.91
2024-02-18T14:45:52.476Z,45.97
2024-02-18T14:48:19.004Z,46.22
2024-02-18T14:50:45.519Z,45.57
2024-02-18T14:53:11.994Z,47.12
2024-02-18T14:55:38.449Z,46.22
2024-02-18T14:58:05.015Z,45.07
2024-02-18T15:00:31.569Z,44.87
2024-02-18T15:02:58.101Z,44.61
2024-02-18T15:05:24.668Z,44.84
2024-02-18T15:07:51.207Z,44.28
2024-02-18T15:10:17.829Z,43.93
2024-02-18T15:12:44.351Z,44.64
2024-02-18T15:15:10.925Z,45.73
2024-02-18T15:17:37.408Z,45.43
2024-02-18T15:20:03.888Z,46.76
2024-02-18T15:22:30.365Z,46.97
2024-02-18T15:24:56.896Z,46.63
2024-02-18T15:27:23.429Z,46.99
2024-02-18T15:29:49.980Z,46.32
2024-02-18T15:32:16.512Z,45.75
2024-02-18T15:34:43.096Z,45.75
2024-02-18T15:37:09.743Z,45.58
2024-02-18T15:39:36.347Z,45.63
2024-02-18T15:42:02.820Z,45.44
2024-02-18T15:44:29.316Z,45.28
2024-02-18T15:46:55.760Z,44.49
2024-02-18T15:49:22.342Z,44.34
2024-02-18T15:51:48.938Z,45.67
2024-02-18T15:54:15.410Z,45.40
2024-02-18T15:56:41.922Z,44.91
2024-02-18T15:59:09.486Z,45.59
2024-02-18T16:01:36.183Z,45.88
2024-02-18T16:04:02.790Z,46.28
2024-02-18T16:06:29.370Z,48.42
2024-02-18T16:08:55.942Z,47.46
2024-02-18T16:11:23.970Z,48.05
2024-02-18T16:13:52.271Z,48.16
2024-02-18T16:16:19.067Z,50.41
2024-02-18T16:18:45.812Z,48.26
2024-02-18T16:21:12.393Z,47.42
2024-02-18T16:23:38.854Z,47.71
2024-02-18T16:26:05.294Z,47.73
2024-02-18T16:28:31.775Z,47.81
2024-02-18T16:30:58.420Z,47.92
2024-02-18T16:33:24.914Z,48.25
2024-02-18T16:35:51.363Z,48.65
2024-02-18T16:38:17.816Z,48.46
2024-02-18T16:40:44.309Z,48.52
2024-02-18T16:43:10.876Z,48.07
2024-02-18T16:45:37.356Z,49.05
2024-02-18T16:48:03.921Z,49.29
2024-02-18T16:50:30.420Z,48.52
2024-02-18T16:52:56.868Z,49.64
2024-02-18T16:55:23.378Z,50.11
2024-02-18T16:57:49.885Z,49.06
2024-02-18T17:00:16.418Z,48.94
2024-02-18T17:02:45.657Z,49.11
2024-02-18T17:05:12.765Z,49.30
2024-02-18T17:07:39.272Z,49.68
2024-02-18T17:10:05.757Z,50.09
2024-02-18T17:12:32.235Z,50.43
2024-02-18T17:14:58.759Z,50.04
2024-02-18T17:17:25.303Z,51.03
2024-02-18T17:19:52.186Z,50.01
2024-02-18T17:22:19.031Z,50.27
2024-02-18T17:24:45.551Z,50.72
2024-02-18T17:27:12.155Z,51.00
2024-02-18T17:29:38.705Z,51.27
2024-02-18T17:32:05.170Z,50.94
2024-02-18T17:34:31.752Z,50.49
2024-02-18T17:36:58.430Z,50.41
2024-02-18T17:39:27.730Z,50.61
2024-02-18T17:41:54.249Z,50.69
2024-02-18T17:44:20.887Z,50.54
2024-02-18T17:46:47.358Z,50.73
2024-02-18T17:49:14.043Z,50.47
2024-02-18T17:51:40.643Z,50.77
2024-02-18T17:54:07.124Z,51.24
2024-02-18T17:56:34.966Z,50.87
2024-02-18T17:59:01.673Z,50.77
2024-02-18T18:01:28.333Z,51.43
2024-02-18T18:03:55.045Z,50.94
2024-02-18T18:06:21.541Z,50.80
2024-02-18T18:08:48.002Z,51.56
2024-02-18T18:11:14.556Z,51.69
2024-02-18T18:13:41.083Z,52.67
2024-02-18T18:16:07.608Z,51.96
2024-02-18T18:18:34.125Z,52.70
2024-02-18T18:21:00.584Z,52.33
2024-02-18T18:23:27.044Z,52.11
2024-02-18T18:25:53.577Z,51.69
2024-02-18T18:28:20.085Z,52.29
2024-02-18T18:30:48.864Z,52.20
2024-02-18T18:33:15.640Z,52.25
2024-02-18T18:35:42.168Z,51.88
2024-02-18T18:38:08.634Z,53.06
2024-02-18T18:40:35.127Z,52.41
2024-02-18T18:43:01.882Z,51.80
2024-02-18T18:45:28.315Z,51.70
2024-02-18T18:47:54.801Z,51.31
2024-02-18T18:50:21.384Z,51.62
2024-02-18T18:52:47.894Z,52.43
2024-02-18T18:55:14.518Z,51.74
2024-02-18T18:57:41.132Z,51.99
2024-02-18T19:00:07.671Z,51.27
2024-02-18T19:02:34.157Z,50.36
2024-02-18T19:05:01.021Z,51.47
2024-02-18T19:07:27.615Z,50.41
2024-02-18T19:09:54.138Z,50.19
2024-02-18T19:12:20.618Z,50.31
2024-02-18T19:14:50.517Z,50.40
2024-02-18T19:17:17.453Z,49.92
2024-02-18T19:19:44.210Z,50.79
2024-02-18T19:22:10.725Z,50.28
2024-02-18T19:24:37.339Z,49.65
2024-02-18T19:27:06.156Z,49.39
2024-02-18T19:29:32.661Z,49.48
2024-02-18T19:31:59.165Z,48.62
2024-02-18T19:34:25.770Z,48.47
2024-02-18T19:36:52.350Z,48.57
2024-02-18T19:39:18.953Z,47.37
2024-02-18T19:41:45.493Z,47.51
2024-02-18T19:44:12.126Z,46.71
2024-02-18T19:46:38.718Z,46.96
2024-02-18T19:49:05.292Z,47.93
2024-02-18T19:51:31.929Z,48.67
2024-02-18T19:53:58.458Z,48.70
2024-02-18T19:56:24.959Z,49.27
2024-02-18T19:58:51.540Z,49.96
2024-02-18T20:01:18.089Z,50.64
2024-02-18T20:03:46.620Z,51.80
2024-02-18T20:06:13.355Z,56.34
2024-02-18T20:08:39.879Z,55.21
2024-02-18T20:11:06.380Z,54.21
2024-02-18T20:13:32.866Z,54.56
2024-02-18T20:15:59.519Z,54.61
2024-02-18T20:18:28.347Z,54.44
2024-02-18T20:20:55.181Z,56.19
2024-02-18T20:23:21.680Z,56.24
2024-02-18T20:25:48.258Z,57.78
2024-02-18T20:28:14.823Z,56.73
2024-02-18T20:30:41.408Z,59.11
2024-02-18T20:33:08.050Z,56.19
2024-02-18T20:35:34.721Z,56.71
2024-02-18T20:38:03.885Z,55.29
2024-02-18T20:40:30.419Z,56.57
2024-02-18T20:42:56.940Z,57.37
2024-02-18T20:45:23.566Z,59.46
2024-02-18T20:47:50.059Z,57.94
2024-02-18T20:50:18.901Z,59.34
2024-02-18T20:52:45.352Z,57.19
2024-02-18T20:55:12.326Z,57.55
2024-02-18T20:57:38.788Z,57.22
2024-02-18T21:00:05.375Z,57.60
2024-02-18T21:02:32.002Z,57.63
2024-02-18T21:04:58.488Z,57.62
2024-02-18T21:07:25.018Z,57.30
2024-02-18T21:09:51.555Z,55.66
2024-02-18T21:12:18.034Z,56.76
2024-02-18T21:14:44.589Z,56.96
2024-02-18T21:17:13.361Z,57.40
2024-02-18T21:19:39.976Z,58.63
2024-02-18T21:22:06.793Z,59.99
2024-02-18T21:24:33.348Z,59.30
2024-02-18T21:26:59.903Z,58.72
2024-02-18T21:29:26.360Z,58.93
2024-02-18T21:31:52.833Z,58.40
2024-02-18T21:34:19.476Z,57.48
2024-02-18T21:36:46.176Z,59.60
2024-02-18T21:39:12.853Z,59.21
2024-02-18T21:41:39.322Z,59.23
2024-02-18T21:44:06.064Z,58.37
2024-02-18T21:46:32.540Z,57.08
2024-02-18T21:48:59.111Z,56.82
2024-02-18T21:51:25.769Z,56.80
2024-02-18T21:53:52.421Z,56.47
2024-02-18T21:56:26.239Z,55.88
2024-02-18T21:58:52.686Z,56.18
2024-02-18T22:01:19.254Z,57.08
2024-02-18T22:03:45.812Z,57.13
2024-02-18T22:06:12.353Z,56.90
2024-02-18T22:08:38.949Z,57.38
2024-02-18T22:11:05.575Z,58.28
2024-02-18T22:13:32.384Z,58.47
2024-02-18T22:15:59.067Z,58.11
2024-02-18T22:18:29.502Z,59.18
2024-02-18T22:20:56.049Z,60.39
2024-02-18T22:23:25.476Z,60.31
2024-02-18T22:25:52.018Z,60.98
2024-02-18T22:28:18.521Z,59.82
2024-02-18T22:30:45.090Z,58.68
2024-02-18T22:33:11.677Z,59.04
2024-02-18T22:35:38.188Z,59.16
2024-02-18T22:38:04.671Z,58.79
2024-02-18T22:40:31.122Z,59.05
2024-02-18T22:42:57.618Z,59.19
2024-02-18T22:45:26.638Z,59.09
2024-02-18T22:47:54.492Z,58.93
2024-02-18T22:50:20.954Z,59.36
2024-02-18T22:52:47.402Z,59.14
2024-02-18T22:55:13.956Z,59.19
2024-02-18T22:57:40.582Z,59.60
2024-02-18T23:00:07.137Z,58.89
2024-02-18T23:02:33.653Z,59.88
2024-02-18T23:05:00.152Z,59.38
2024-02-18T23:07:26.771Z,58.72
2024-02-18T23:09:53.379Z,58.70
2024-02-18T23:12:19.890Z,59.47
2024-02-18T23:14:46.336Z,58.68
2024-02-18T23:17:12.802Z,58.85
2024-02-18T23:19:39.334Z,57.84
2024-02-18T23:22:05.914Z,59.85
2024-02-18T23:24:32.477Z,59.96
2024-02-18T23:26:58.945Z,60.81
2024-02-18T23:29:25.578Z,58.86
2024-02-18T23:31:52.036Z,59.36
2024-02-18T23:34:18.758Z,58.60
2024-02-18T23:36:45.456Z,58.69
2024-02-18T23:39:11.928Z,58.74
2024-02-18T23:41:38.381Z,58.54
2024-02-18T23:44:04.821Z,58.14
2024-02-18T23:46:31.319Z,58.52
2024-02-18T23:48:57.856Z,59.17
2024-02-18T23:51:24.460Z,58.98
2024-02-18T23:53:50.988Z,58.65
2024-02-18T23:56:17.436Z,57.00
2024-02-18T23:58:43.910Z,57.81
